sensor_id;sensor_type;location;lat;lon;timestamp;temperature;humidity
36374;DHT22;22399;51.346;12.372;2023-04-19T00:02:08;9.50;99.90
36374;DHT22;22399;51.346;12.372;2023-04-19T00:04:38;9.50;99.90
36374;DHT22;22399;51.346;12.372;2023-04-19T00:07:06;9.40;99.90
36374;DHT22;22399;51.346;12.372;2023-04-19T00:09:34;9.40;99.90
36374;DHT22;22399;51.346;12.372;2023-04-19T00:12:02;9.40;99.90
36374;DHT22;22399;51.346;12.372;2023-04-19T00:14:30;9.40;99.90
36374;DHT22;22399;51.346;12.372;2023-04-19T00:16:58;9.40;99.90
36374;DHT22;22399;51.346;12.372;2023-04-19T00:19:27;9.40;99.90
36374;DHT22;22399;51.346;12.372;2023-04-19T00:21:57;9.30;99.90
36374;DHT22;22399;51.346;12.372;2023-04-19T00:24:25;9.30;99.90
36374;DHT22;22399;51.346;12.372;2023-04-19T00:26:53;9.30;99.90
36374;DHT22;22399;51.346;12.372;2023-04-19T00:29:23;9.20;99.90
36374;DHT22;22399;51.346;12.372;2023-04-19T00:31:51;9.20;99.90
36374;DHT22;22399;51.346;12.372;2023-04-19T00:34:20;9.20;99.90
36374;DHT22;22399;51.346;12.372;2023-04-19T00:36:48;9.10;99.90
36374;DHT22;22399;51.346;12.372;2023-04-19T00:39:17;9.10;99.90
36374;DHT22;22399;51.346;12.372;2023-04-19T00:41:46;9.10;99.90
36374;DHT22;22399;51.346;12.372;2023-04-19T00:44:16;9.00;99.90
36374;DHT22;22399;51.346;12.372;2023-04-19T00:46:45;9.00;99.90
36374;DHT22;22399;51.346;12.372;2023-04-19T00:49:15;8.90;99.90
36374;DHT22;22399;51.346;12.372;2023-04-19T00:51:44;8.90;99.90
36374;DHT22;22399;51.346;12.372;2023-04-19T00:54:13;8.80;99.90
36374;DHT22;22399;51.346;12.372;2023-04-19T00:56:44;8.80;99.90
36374;DHT22;22399;51.346;12.372;2023-04-19T00:59:13;8.70;99.90
36374;DHT22;22399;51.346;12.372;2023-04-19T01:01:41;8.70;99.90
36374;DHT22;22399;51.346;12.372;2023-04-19T01:04:10;8.70;99.90
36374;DHT22;22399;51.346;12.372;2023-04-19T01:06:39;8.60;99.90
36374;DHT22;22399;51.346;12.372;2023-04-19T01:09:09;8.60;99.90
36374;DHT22;22399;51.346;12.372;2023-04-19T01:11:40;8.50;99.90
36374;DHT22;22399;51.346;12.372;2023-04-19T01:14:10;8.50;99.90
36374;DHT22;22399;51.346;12.372;2023-04-19T01:16:39;8.40;99.90
36374;DHT22;22399;51.346;12.372;2023-04-19T01:19:07;8.40;99.90
36374;DHT22;22399;51.346;12.372;2023-04-19T01:21:36;8.40;99.90
36374;DHT22;22399;51.346;12.372;2023-04-19T01:24:06;8.40;99.90
36374;DHT22;22399;51.346;12.372;2023-04-19T01:26:35;8.40;99.90
36374;DHT22;22399;51.346;12.372;2023-04-19T01:29:03;8.40;99.90
36374;DHT22;22399;51.346;12.372;2023-04-19T01:31:31;8.30;99.90
36374;DHT22;22399;51.346;12.372;2023-04-19T01:33:59;8.30;99.90
36374;DHT22;22399;51.346;12.372;2023-04-19T01:36:27;8.30;99.90
36374;DHT22;22399;51.346;12.372;2023-04-19T01:38:57;8.20;99.90
36374;DHT22;22399;51.346;12.372;2023-04-19T01:41:26;8.20;99.90
36374;DHT22;22399;51.346;12.372;2023-04-19T01:43:55;8.20;99.90
36374;DHT22;22399;51.346;12.372;2023-04-19T01:46:23;8.20;99.90
36374;DHT22;22399;51.346;12.372;2023-04-19T01:48:51;8.20;99.90
36374;DHT22;22399;51.346;12.372;2023-04-19T01:51:20;8.10;99.90
36374;DHT22;22399;51.346;12.372;2023-04-19T01:53:48;8.10;99.90
36374;DHT22;22399;51.346;12.372;2023-04-19T01:56:21;8.10;99.90
36374;DHT22;22399;51.346;12.372;2023-04-19T01:58:51;8.10;99.90
36374;DHT22;22399;51.346;12.372;2023-04-19T02:01:19;8.10;99.90
36374;DHT22;22399;51.346;12.372;2023-04-19T02:03:47;8.10;99.90
36374;DHT22;22399;51.346;12.372;2023-04-19T02:06:16;8.00;99.90
36374;DHT22;22399;51.346;12.372;2023-04-19T02:08:44;8.00;99.90
36374;DHT22;22399;51.346;12.372;2023-04-19T02:11:12;8.00;99.90
36374;DHT22;22399;51.346;12.372;2023-04-19T02:13:41;7.90;99.90
36374;DHT22;22399;51.346;12.372;2023-04-19T02:16:10;7.90;99.90
36374;DHT22;22399;51.346;12.372;2023-04-19T02:18:39;7.90;99.90
36374;DHT22;22399;51.346;12.372;2023-04-19T02:21:07;7.90;99.90
36374;DHT22;22399;51.346;12.372;2023-04-19T02:23:36;7.80;99.90
36374;DHT22;22399;51.346;12.372;2023-04-19T02:26:04;7.80;99.90
36374;DHT22;22399;51.346;12.372;2023-04-19T02:28:33;7.70;99.90
36374;DHT22;22399;51.346;12.372;2023-04-19T02:31:03;7.70;99.90
36374;DHT22;22399;51.346;12.372;2023-04-19T02:33:35;7.60;99.90
36374;DHT22;22399;51.346;12.372;2023-04-19T02:36:03;7.60;99.90
36374;DHT22;22399;51.346;12.372;2023-04-19T02:38:32;7.50;99.90
36374;DHT22;22399;51.346;12.372;2023-04-19T02:41:00;7.50;99.90
36374;DHT22;22399;51.346;12.372;2023-04-19T02:43:30;7.50;99.90
36374;DHT22;22399;51.346;12.372;2023-04-19T02:45:58;7.50;99.90
36374;DHT22;22399;51.346;12.372;2023-04-19T02:48:26;7.50;99.90
36374;DHT22;22399;51.346;12.372;2023-04-19T02:50:56;7.50;99.90
36374;DHT22;22399;51.346;12.372;2023-04-19T02:53:25;7.50;99.90
36374;DHT22;22399;51.346;12.372;2023-04-19T02:55:53;7.50;99.90
36374;DHT22;22399;51.346;12.372;2023-04-19T02:58:21;7.50;99.90
36374;DHT22;22399;51.346;12.372;2023-04-19T03:00:57;7.40;99.90
36374;DHT22;22399;51.346;12.372;2023-04-19T03:03:26;7.40;99.90
36374;DHT22;22399;51.346;12.372;2023-04-19T03:05:56;7.30;99.90
36374;DHT22;22399;51.346;12.372;2023-04-19T03:08:26;7.30;99.90
36374;DHT22;22399;51.346;12.372;2023-04-19T03:10:55;7.20;99.90
36374;DHT22;22399;51.346;12.372;2023-04-19T03:13:23;7.20;99.90
36374;DHT22;22399;51.346;12.372;2023-04-19T03:15:51;7.20;99.90
36374;DHT22;22399;51.346;12.372;2023-04-19T03:18:21;7.20;99.90
36374;DHT22;22399;51.346;12.372;2023-04-19T03:20:52;7.20;99.90
36374;DHT22;22399;51.346;12.372;2023-04-19T03:23:22;7.20;99.90
36374;DHT22;22399;51.346;12.372;2023-04-19T03:25:50;7.20;99.90
36374;DHT22;22399;51.346;12.372;2023-04-19T03:28:35;7.20;99.90
36374;DHT22;22399;51.346;12.372;2023-04-19T03:31:10;7.10;99.90
36374;DHT22;22399;51.346;12.372;2023-04-19T03:33:39;7.10;99.90
36374;DHT22;22399;51.346;12.372;2023-04-19T03:36:08;7.10;99.90
36374;DHT22;22399;51.346;12.372;2023-04-19T03:38:40;7.10;99.90
36374;DHT22;22399;51.346;12.372;2023-04-19T03:41:18;7.10;99.90
36374;DHT22;22399;51.346;12.372;2023-04-19T03:43:51;7.10;99.90
36374;DHT22;22399;51.346;12.372;2023-04-19T03:46:21;7.10;99.90
36374;DHT22;22399;51.346;12.372;2023-04-19T03:48:50;7.10;99.90
36374;DHT22;22399;51.346;12.372;2023-04-19T03:51:19;7.10;99.90
36374;DHT22;22399;51.346;12.372;2023-04-19T03:53:49;7.10;99.90
36374;DHT22;22399;51.346;12.372;2023-04-19T03:56:18;7.10;99.90
36374;DHT22;22399;51.346;12.372;2023-04-19T03:58:49;7.10;99.90
36374;DHT22;22399;51.346;12.372;2023-04-19T04:01:17;7.10;99.90
36374;DHT22;22399;51.346;12.372;2023-04-19T04:03:46;7.00;99.90
36374;DHT22;22399;51.346;12.372;2023-04-19T04:06:16;7.00;99.90
36374;DHT22;22399;51.346;12.372;2023-04-19T04:08:45;7.10;99.90
36374;DHT22;22399;51.346;12.372;2023-04-19T04:11:15;7.00;99.90
36374;DHT22;22399;51.346;12.372;2023-04-19T04:13:46;7.10;99.90
36374;DHT22;22399;51.346;12.372;2023-04-19T04:16:19;7.10;99.90
36374;DHT22;22399;51.346;12.372;2023-04-19T04:18:49;7.20;99.90
36374;DHT22;22399;51.346;12.372;2023-04-19T04:21:18;7.10;99.90
36374;DHT22;22399;51.346;12.372;2023-04-19T04:23:47;7.10;99.90
36374;DHT22;22399;51.346;12.372;2023-04-19T04:26:25;7.10;99.90
36374;DHT22;22399;51.346;12.372;2023-04-19T04:29:19;7.10;99.90
36374;DHT22;22399;51.346;12.372;2023-04-19T04:31:50;7.10;99.90
36374;DHT22;22399;51.346;12.372;2023-04-19T04:34:22;7.00;99.90
36374;DHT22;22399;51.346;12.372;2023-04-19T04:37:00;7.00;99.90
36374;DHT22;22399;51.346;12.372;2023-04-19T04:39:29;7.00;99.90
36374;DHT22;22399;51.346;12.372;2023-04-19T04:42:02;7.00;99.90
36374;DHT22;22399;51.346;12.372;2023-04-19T04:44:31;7.00;99.90
36374;DHT22;22399;51.346;12.372;2023-04-19T04:47:00;7.00;99.90
36374;DHT22;22399;51.346;12.372;2023-04-19T04:49:32;7.00;99.90
36374;DHT22;22399;51.346;12.372;2023-04-19T04:52:01;7.10;99.90
36374;DHT22;22399;51.346;12.372;2023-04-19T04:54:34;7.10;99.90
36374;DHT22;22399;51.346;12.372;2023-04-19T04:57:05;7.20;99.90
36374;DHT22;22399;51.346;12.372;2023-04-19T04:59:33;7.20;99.90
36374;DHT22;22399;51.346;12.372;2023-04-19T05:02:02;7.10;99.90
36374;DHT22;22399;51.346;12.372;2023-04-19T05:04:30;7.20;99.90
36374;DHT22;22399;51.346;12.372;2023-04-19T05:06:59;7.10;99.90
36374;DHT22;22399;51.346;12.372;2023-04-19T05:09:27;7.20;99.90
36374;DHT22;22399;51.346;12.372;2023-04-19T05:11:55;7.20;99.90
36374;DHT22;22399;51.346;12.372;2023-04-19T05:14:25;7.30;99.90
36374;DHT22;22399;51.346;12.372;2023-04-19T05:16:53;7.30;99.90
36374;DHT22;22399;51.346;12.372;2023-04-19T05:19:22;7.30;99.90
36374;DHT22;22399;51.346;12.372;2023-04-19T05:21:58;7.30;99.90
36374;DHT22;22399;51.346;12.372;2023-04-19T05:24:26;7.40;99.90
36374;DHT22;22399;51.346;12.372;2023-04-19T05:26:54;7.30;99.90
36374;DHT22;22399;51.346;12.372;2023-04-19T05:29:24;7.30;99.90
36374;DHT22;22399;51.346;12.372;2023-04-19T05:31:54;7.30;99.90
36374;DHT22;22399;51.346;12.372;2023-04-19T05:34:29;7.30;99.90
36374;DHT22;22399;51.346;12.372;2023-04-19T05:36:58;7.20;99.90
36374;DHT22;22399;51.346;12.372;2023-04-19T05:39:26;7.10;99.90
36374;DHT22;22399;51.346;12.372;2023-04-19T05:41:57;7.10;99.90
36374;DHT22;22399;51.346;12.372;2023-04-19T05:44:27;7.00;99.90
36374;DHT22;22399;51.346;12.372;2023-04-19T05:46:55;7.00;99.90
36374;DHT22;22399;51.346;12.372;2023-04-19T05:49:42;7.00;99.90
36374;DHT22;22399;51.346;12.372;2023-04-19T05:52:17;7.10;99.90
36374;DHT22;22399;51.346;12.372;2023-04-19T05:54:49;7.20;99.90
36374;DHT22;22399;51.346;12.372;2023-04-19T05:57:17;7.30;99.90
36374;DHT22;22399;51.346;12.372;2023-04-19T05:59:47;7.40;99.90
36374;DHT22;22399;51.346;12.372;2023-04-19T06:02:19;7.50;99.90
36374;DHT22;22399;51.346;12.372;2023-04-19T06:04:47;7.60;99.90
36374;DHT22;22399;51.346;12.372;2023-04-19T06:07:17;7.70;99.90
36374;DHT22;22399;51.346;12.372;2023-04-19T06:10:00;7.80;99.90
36374;DHT22;22399;51.346;12.372;2023-04-19T06:12:28;7.80;99.90
36374;DHT22;22399;51.346;12.372;2023-04-19T06:14:57;7.80;99.90
36374;DHT22;22399;51.346;12.372;2023-04-19T06:17:27;7.80;99.80
36374;DHT22;22399;51.346;12.372;2023-04-19T06:19:55;7.80;99.60
36374;DHT22;22399;51.346;12.372;2023-04-19T06:22:23;8.00;99.60
36374;DHT22;22399;51.346;12.372;2023-04-19T06:24:51;8.10;99.10
36374;DHT22;22399;51.346;12.372;2023-04-19T06:27:19;8.40;98.80
36374;DHT22;22399;51.346;12.372;2023-04-19T06:29:47;8.50;98.50
36374;DHT22;22399;51.346;12.372;2023-04-19T06:32:18;8.70;99.00
36374;DHT22;22399;51.346;12.372;2023-04-19T06:34:46;9.60;98.60
36374;DHT22;22399;51.346;12.372;2023-04-19T06:37:15;10.90;96.80
36374;DHT22;22399;51.346;12.372;2023-04-19T06:39:43;11.80;93.60
36374;DHT22;22399;51.346;12.372;2023-04-19T06:42:12;12.10;92.50
36374;DHT22;22399;51.346;12.372;2023-04-19T06:44:40;12.60;91.40
36374;DHT22;22399;51.346;12.372;2023-04-19T06:47:08;12.90;90.10
36374;DHT22;22399;51.346;12.372;2023-04-19T06:49:37;13.00;89.70
36374;DHT22;22399;51.346;12.372;2023-04-19T06:52:06;13.40;87.90
36374;DHT22;22399;51.346;12.372;2023-04-19T06:54:34;13.90;86.00
36374;DHT22;22399;51.346;12.372;2023-04-19T06:57:02;14.00;84.50
36374;DHT22;22399;51.346;12.372;2023-04-19T06:59:30;14.40;84.20
36374;DHT22;22399;51.346;12.372;2023-04-19T07:01:59;14.90;82.40
36374;DHT22;22399;51.346;12.372;2023-04-19T07:04:27;15.00;81.00
36374;DHT22;22399;51.346;12.372;2023-04-19T07:06:57;15.10;80.40
36374;DHT22;22399;51.346;12.372;2023-04-19T07:09:26;15.00;78.30
36374;DHT22;22399;51.346;12.372;2023-04-19T07:11:54;14.70;78.20
36374;DHT22;22399;51.346;12.372;2023-04-19T07:14:23;14.30;77.80
36374;DHT22;22399;51.346;12.372;2023-04-19T07:16:51;14.30;78.40
36374;DHT22;22399;51.346;12.372;2023-04-19T07:19:20;14.40;78.20
36374;DHT22;22399;51.346;12.372;2023-04-19T07:21:49;14.50;77.50
36374;DHT22;22399;51.346;12.372;2023-04-19T07:24:19;14.70;77.00
36374;DHT22;22399;51.346;12.372;2023-04-19T07:26:47;14.70;76.60
36374;DHT22;22399;51.346;12.372;2023-04-19T07:29:15;14.80;76.40
36374;DHT22;22399;51.346;12.372;2023-04-19T07:31:44;15.10;75.40
36374;DHT22;22399;51.346;12.372;2023-04-19T07:34:13;15.30;74.90
36374;DHT22;22399;51.346;12.372;2023-04-19T07:36:41;15.30;74.30
36374;DHT22;22399;51.346;12.372;2023-04-19T07:39:10;15.30;73.90
36374;DHT22;22399;51.346;12.372;2023-04-19T07:41:40;15.00;73.80
36374;DHT22;22399;51.346;12.372;2023-04-19T07:44:08;15.00;73.70
36374;DHT22;22399;51.346;12.372;2023-04-19T07:46:37;14.70;73.50
36374;DHT22;22399;51.346;12.372;2023-04-19T07:49:05;14.80;73.30
36374;DHT22;22399;51.346;12.372;2023-04-19T07:51:33;15.40;72.90
36374;DHT22;22399;51.346;12.372;2023-04-19T07:54:02;15.50;73.10
36374;DHT22;22399;51.346;12.372;2023-04-19T07:56:30;15.00;73.10
36374;DHT22;22399;51.346;12.372;2023-04-19T07:59:00;15.10;72.80
36374;DHT22;22399;51.346;12.372;2023-04-19T08:01:35;15.30;72.60
36374;DHT22;22399;51.346;12.372;2023-04-19T08:04:03;15.80;72.40
36374;DHT22;22399;51.346;12.372;2023-04-19T08:06:32;16.20;71.80
36374;DHT22;22399;51.346;12.372;2023-04-19T08:09:00;16.40;71.50
36374;DHT22;22399;51.346;12.372;2023-04-19T08:11:30;16.60;70.90
36374;DHT22;22399;51.346;12.372;2023-04-19T08:13:58;16.40;70.70
36374;DHT22;22399;51.346;12.372;2023-04-19T08:16:30;16.50;70.50
36374;DHT22;22399;51.346;12.372;2023-04-19T08:19:19;16.50;70.20
36374;DHT22;22399;51.346;12.372;2023-04-19T08:21:47;16.60;69.60
36374;DHT22;22399;51.346;12.372;2023-04-19T08:24:15;16.70;69.70
36374;DHT22;22399;51.346;12.372;2023-04-19T08:26:44;16.40;69.20
36374;DHT22;22399;51.346;12.372;2023-04-19T08:29:19;16.40;69.50
36374;DHT22;22399;51.346;12.372;2023-04-19T08:31:49;16.40;69.40
36374;DHT22;22399;51.346;12.372;2023-04-19T08:34:17;16.90;69.40
36374;DHT22;22399;51.346;12.372;2023-04-19T08:36:45;17.30;68.80
36374;DHT22;22399;51.346;12.372;2023-04-19T08:39:29;16.90;68.20
36374;DHT22;22399;51.346;12.372;2023-04-19T08:42:02;16.80;68.20
36374;DHT22;22399;51.346;12.372;2023-04-19T08:44:36;16.60;68.50
36374;DHT22;22399;51.346;12.372;2023-04-19T08:47:22;16.90;68.60
36374;DHT22;22399;51.346;12.372;2023-04-19T08:50:00;16.80;67.80
36374;DHT22;22399;51.346;12.372;2023-04-19T08:52:32;16.70;67.80
36374;DHT22;22399;51.346;12.372;2023-04-19T08:55:10;16.60;67.90
36374;DHT22;22399;51.346;12.372;2023-04-19T08:57:38;16.70;67.80
36374;DHT22;22399;51.346;12.372;2023-04-19T09:00:07;16.50;67.60
36374;DHT22;22399;51.346;12.372;2023-04-19T09:02:45;16.60;67.60
36374;DHT22;22399;51.346;12.372;2023-04-19T09:05:15;16.70;67.40
36374;DHT22;22399;51.346;12.372;2023-04-19T09:07:44;16.90;67.50
36374;DHT22;22399;51.346;12.372;2023-04-19T09:10:13;16.70;67.30
36374;DHT22;22399;51.346;12.372;2023-04-19T09:12:41;16.60;67.40
36374;DHT22;22399;51.346;12.372;2023-04-19T09:15:10;16.90;67.70
36374;DHT22;22399;51.346;12.372;2023-04-19T09:17:38;17.10;67.20
36374;DHT22;22399;51.346;12.372;2023-04-19T09:20:08;17.20;67.80
36374;DHT22;22399;51.346;12.372;2023-04-19T09:22:37;16.90;67.50
36374;DHT22;22399;51.346;12.372;2023-04-19T09:25:05;17.10;67.00
36374;DHT22;22399;51.346;12.372;2023-04-19T09:27:37;17.00;67.00
36374;DHT22;22399;51.346;12.372;2023-04-19T09:30:06;17.30;67.00
36374;DHT22;22399;51.346;12.372;2023-04-19T09:32:47;17.20;66.70
36374;DHT22;22399;51.346;12.372;2023-04-19T09:35:17;17.40;67.20
36374;DHT22;22399;51.346;12.372;2023-04-19T09:37:56;17.60;66.80
36374;DHT22;22399;51.346;12.372;2023-04-19T09:40:32;17.60;66.90
36374;DHT22;22399;51.346;12.372;2023-04-19T09:43:01;17.60;66.80
36374;DHT22;22399;51.346;12.372;2023-04-19T09:45:50;17.70;66.40
36374;DHT22;22399;51.346;12.372;2023-04-19T09:48:18;17.80;67.00
36374;DHT22;22399;51.346;12.372;2023-04-19T09:50:51;17.80;66.40
36374;DHT22;22399;51.346;12.372;2023-04-19T09:53:28;17.60;66.50
36374;DHT22;22399;51.346;12.372;2023-04-19T09:56:00;16.90;67.20
36374;DHT22;22399;51.346;12.372;2023-04-19T09:58:30;16.70;67.10
36374;DHT22;22399;51.346;12.372;2023-04-19T10:01:01;16.70;68.20
36374;DHT22;22399;51.346;12.372;2023-04-19T10:03:40;16.70;67.40
36374;DHT22;22399;51.346;12.372;2023-04-19T10:06:12;16.60;68.40
36374;DHT22;22399;51.346;12.372;2023-04-19T10:08:46;16.50;67.90
36374;DHT22;22399;51.346;12.372;2023-04-19T10:11:16;16.60;68.10
36374;DHT22;22399;51.346;12.372;2023-04-19T10:13:45;17.00;67.60
36374;DHT22;22399;51.346;12.372;2023-04-19T10:16:16;16.70;67.10
36374;DHT22;22399;51.346;12.372;2023-04-19T10:18:46;16.60;67.80
36374;DHT22;22399;51.346;12.372;2023-04-19T10:21:17;16.70;68.00
36374;DHT22;22399;51.346;12.372;2023-04-19T10:23:46;17.00;68.00
36374;DHT22;22399;51.346;12.372;2023-04-19T10:26:14;17.00;67.90
36374;DHT22;22399;51.346;12.372;2023-04-19T10:28:43;16.90;68.00
36374;DHT22;22399;51.346;12.372;2023-04-19T10:31:11;17.00;68.60
36374;DHT22;22399;51.346;12.372;2023-04-19T10:33:40;17.20;68.00
36374;DHT22;22399;51.346;12.372;2023-04-19T10:36:08;17.80;68.00
36374;DHT22;22399;51.346;12.372;2023-04-19T10:38:38;17.10;67.90
36374;DHT22;22399;51.346;12.372;2023-04-19T10:41:07;16.90;68.10
36374;DHT22;22399;51.346;12.372;2023-04-19T10:43:45;17.20;67.80
36374;DHT22;22399;51.346;12.372;2023-04-19T10:46:14;17.20;67.10
36374;DHT22;22399;51.346;12.372;2023-04-19T10:48:49;17.30;67.70
36374;DHT22;22399;51.346;12.372;2023-04-19T10:51:20;17.80;67.00
36374;DHT22;22399;51.346;12.372;2023-04-19T10:53:51;17.70;66.80
36374;DHT22;22399;51.346;12.372;2023-04-19T10:56:21;17.80;66.70
36374;DHT22;22399;51.346;12.372;2023-04-19T11:01:37;17.10;67.60
36374;DHT22;22399;51.346;12.372;2023-04-19T11:04:06;17.20;66.90
36374;DHT22;22399;51.346;12.372;2023-04-19T11:06:36;17.60;67.00
36374;DHT22;22399;51.346;12.372;2023-04-19T11:09:05;17.40;67.60
36374;DHT22;22399;51.346;12.372;2023-04-19T11:11:36;17.20;68.20
36374;DHT22;22399;51.346;12.372;2023-04-19T11:14:04;17.20;68.00
36374;DHT22;22399;51.346;12.372;2023-04-19T11:16:34;17.20;68.00
36374;DHT22;22399;51.346;12.372;2023-04-19T11:19:13;17.20;68.40
36374;DHT22;22399;51.346;12.372;2023-04-19T11:21:43;17.40;68.30
36374;DHT22;22399;51.346;12.372;2023-04-19T11:24:13;17.30;67.60
36374;DHT22;22399;51.346;12.372;2023-04-19T11:26:44;17.60;67.40
36374;DHT22;22399;51.346;12.372;2023-04-19T11:29:13;18.00;66.80
36374;DHT22;22399;51.346;12.372;2023-04-19T11:31:42;18.00;66.60
36374;DHT22;22399;51.346;12.372;2023-04-19T11:34:12;17.40;66.40
36374;DHT22;22399;51.346;12.372;2023-04-19T11:36:47;16.70;67.10
36374;DHT22;22399;51.346;12.372;2023-04-19T11:39:17;16.30;67.30
36374;DHT22;22399;51.346;12.372;2023-04-19T11:41:45;16.20;68.20
36374;DHT22;22399;51.346;12.372;2023-04-19T11:44:14;16.30;68.00
36374;DHT22;22399;51.346;12.372;2023-04-19T11:46:42;16.00;67.90
36374;DHT22;22399;51.346;12.372;2023-04-19T11:49:27;15.70;68.60
36374;DHT22;22399;51.346;12.372;2023-04-19T11:51:56;15.80;68.60
36374;DHT22;22399;51.346;12.372;2023-04-19T11:54:27;16.40;68.30
36374;DHT22;22399;51.346;12.372;2023-04-19T11:56:55;16.20;68.20
36374;DHT22;22399;51.346;12.372;2023-04-19T11:59:24;15.60;68.00
36374;DHT22;22399;51.346;12.372;2023-04-19T12:01:53;15.30;68.10
36374;DHT22;22399;51.346;12.372;2023-04-19T12:04:21;15.00;68.10
36374;DHT22;22399;51.346;12.372;2023-04-19T12:06:56;14.80;68.30
36374;DHT22;22399;51.346;12.372;2023-04-19T12:09:26;14.60;68.00
36374;DHT22;22399;51.346;12.372;2023-04-19T12:11:55;14.60;68.60
36374;DHT22;22399;51.346;12.372;2023-04-19T12:14:23;14.70;69.10
36374;DHT22;22399;51.346;12.372;2023-04-19T12:17:05;15.10;69.40
36374;DHT22;22399;51.346;12.372;2023-04-19T12:19:36;15.30;68.70
36374;DHT22;22399;51.346;12.372;2023-04-19T12:22:08;15.40;68.50
36374;DHT22;22399;51.346;12.372;2023-04-19T12:24:38;15.10;67.80
36374;DHT22;22399;51.346;12.372;2023-04-19T12:27:08;14.80;68.00
36374;DHT22;22399;51.346;12.372;2023-04-19T12:29:37;14.40;68.60
36374;DHT22;22399;51.346;12.372;2023-04-19T12:32:05;13.50;69.60
36374;DHT22;22399;51.346;12.372;2023-04-19T12:34:33;12.60;72.00
36374;DHT22;22399;51.346;12.372;2023-04-19T12:37:02;12.10;74.00
36374;DHT22;22399;51.346;12.372;2023-04-19T12:39:30;12.10;74.50
36374;DHT22;22399;51.346;12.372;2023-04-19T12:42:00;12.10;74.30
36374;DHT22;22399;51.346;12.372;2023-04-19T12:44:28;12.30;74.40
36374;DHT22;22399;51.346;12.372;2023-04-19T12:46:56;12.40;74.40
36374;DHT22;22399;51.346;12.372;2023-04-19T12:49:25;12.60;74.40
36374;DHT22;22399;51.346;12.372;2023-04-19T12:51:53;12.60;73.90
36374;DHT22;22399;51.346;12.372;2023-04-19T12:54:23;12.90;74.00
36374;DHT22;22399;51.346;12.372;2023-04-19T12:56:51;13.30;73.40
36374;DHT22;22399;51.346;12.372;2023-04-19T12:59:21;14.00;72.90
36374;DHT22;22399;51.346;12.372;2023-04-19T13:01:49;14.80;72.00
36374;DHT22;22399;51.346;12.372;2023-04-19T13:04:17;15.50;71.60
36374;DHT22;22399;51.346;12.372;2023-04-19T13:06:46;15.80;71.00
36374;DHT22;22399;51.346;12.372;2023-04-19T13:09:14;16.30;70.30
36374;DHT22;22399;51.346;12.372;2023-04-19T13:11:43;16.70;69.40
36374;DHT22;22399;51.346;12.372;2023-04-19T13:14:11;17.20;68.40
36374;DHT22;22399;51.346;12.372;2023-04-19T13:16:40;17.50;67.80
36374;DHT22;22399;51.346;12.372;2023-04-19T13:19:08;17.00;67.30
36374;DHT22;22399;51.346;12.372;2023-04-19T13:21:36;16.50;67.40
36374;DHT22;22399;51.346;12.372;2023-04-19T13:24:05;15.90;67.50
36374;DHT22;22399;51.346;12.372;2023-04-19T13:26:33;15.90;68.00
36374;DHT22;22399;51.346;12.372;2023-04-19T13:29:02;16.10;67.70
36374;DHT22;22399;51.346;12.372;2023-04-19T13:31:30;16.20;66.90
36374;DHT22;22399;51.346;12.372;2023-04-19T13:34:00;16.10;66.60
36374;DHT22;22399;51.346;12.372;2023-04-19T13:36:28;16.40;66.50
36374;DHT22;22399;51.346;12.372;2023-04-19T13:38:57;16.80;66.60
36374;DHT22;22399;51.346;12.372;2023-04-19T13:41:25;17.50;65.70
36374;DHT22;22399;51.346;12.372;2023-04-19T13:43:53;17.70;64.90
36374;DHT22;22399;51.346;12.372;2023-04-19T13:46:21;17.20;66.10
36374;DHT22;22399;51.346;12.372;2023-04-19T13:48:50;16.70;66.40
36374;DHT22;22399;51.346;12.372;2023-04-19T13:51:19;16.50;66.20
36374;DHT22;22399;51.346;12.372;2023-04-19T13:53:48;16.10;66.80
36374;DHT22;22399;51.346;12.372;2023-04-19T13:56:16;15.70;66.50
36374;DHT22;22399;51.346;12.372;2023-04-19T13:58:44;15.30;66.60
36374;DHT22;22399;51.346;12.372;2023-04-19T14:01:12;14.90;67.40
36374;DHT22;22399;51.346;12.372;2023-04-19T14:03:40;14.40;68.30
36374;DHT22;22399;51.346;12.372;2023-04-19T14:06:08;14.20;68.40
36374;DHT22;22399;51.346;12.372;2023-04-19T14:08:38;13.90;68.80
36374;DHT22;22399;51.346;12.372;2023-04-19T14:11:06;13.80;68.60
36374;DHT22;22399;51.346;12.372;2023-04-19T14:13:35;13.70;69.30
36374;DHT22;22399;51.346;12.372;2023-04-19T14:16:03;14.00;69.60
36374;DHT22;22399;51.346;12.372;2023-04-19T14:18:32;14.20;69.00
36374;DHT22;22399;51.346;12.372;2023-04-19T14:21:00;14.40;69.50
36374;DHT22;22399;51.346;12.372;2023-04-19T14:23:28;14.60;69.20
36374;DHT22;22399;51.346;12.372;2023-04-19T14:25:57;14.70;69.20
36374;DHT22;22399;51.346;12.372;2023-04-19T14:28:26;14.50;69.20
36374;DHT22;22399;51.346;12.372;2023-04-19T14:30:54;14.40;69.00
36374;DHT22;22399;51.346;12.372;2023-04-19T14:33:22;14.30;69.20
36374;DHT22;22399;51.346;12.372;2023-04-19T14:35:51;14.10;69.20
36374;DHT22;22399;51.346;12.372;2023-04-19T14:38:19;14.00;69.20
36374;DHT22;22399;51.346;12.372;2023-04-19T14:40:47;13.70;69.70
36374;DHT22;22399;51.346;12.372;2023-04-19T14:43:17;13.40;69.90
36374;DHT22;22399;51.346;12.372;2023-04-19T14:45:46;13.40;70.10
36374;DHT22;22399;51.346;12.372;2023-04-19T14:48:14;13.40;69.60
36374;DHT22;22399;51.346;12.372;2023-04-19T14:50:44;13.20;69.50
36374;DHT22;22399;51.346;12.372;2023-04-19T14:53:12;13.20;69.90
36374;DHT22;22399;51.346;12.372;2023-04-19T14:55:40;13.00;70.40
36374;DHT22;22399;51.346;12.372;2023-04-19T14:58:08;12.80;70.40
36374;DHT22;22399;51.346;12.372;2023-04-19T15:00:38;12.60;71.10
36374;DHT22;22399;51.346;12.372;2023-04-19T15:03:06;12.00;71.70
36374;DHT22;22399;51.346;12.372;2023-04-19T15:05:35;10.90;74.70
36374;DHT22;22399;51.346;12.372;2023-04-19T15:08:03;9.60;79.20
36374;DHT22;22399;51.346;12.372;2023-04-19T15:10:38;8.90;84.50
36374;DHT22;22399;51.346;12.372;2023-04-19T15:13:06;8.40;89.00
36374;DHT22;22399;51.346;12.372;2023-04-19T15:15:35;8.10;91.60
36374;DHT22;22399;51.346;12.372;2023-04-19T15:18:04;8.00;94.30
36374;DHT22;22399;51.346;12.372;2023-04-19T15:20:33;8.00;96.80
36374;DHT22;22399;51.346;12.372;2023-04-19T15:23:01;7.90;99.20
36374;DHT22;22399;51.346;12.372;2023-04-19T15:25:29;7.90;99.90
36374;DHT22;22399;51.346;12.372;2023-04-19T15:27:58;8.00;99.90
36374;DHT22;22399;51.346;12.372;2023-04-19T15:30:26;8.20;99.90
36374;DHT22;22399;51.346;12.372;2023-04-19T15:32:54;8.30;99.90
36374;DHT22;22399;51.346;12.372;2023-04-19T15:35:24;8.40;99.90
36374;DHT22;22399;51.346;12.372;2023-04-19T15:37:52;8.50;99.90
36374;DHT22;22399;51.346;12.372;2023-04-19T15:40:20;8.50;99.90
36374;DHT22;22399;51.346;12.372;2023-04-19T15:42:50;8.70;99.90